createdAt,value
2022-11-13T03:17:15.773Z,8.00
2022-11-13T03:21:17.715Z,3.40
2022-11-13T03:25:19.650Z,3.10
2022-11-13T03:29:21.655Z,3.10
2022-11-13T03:33:26.433Z,3.10
2022-11-13T03:37:28.419Z,3.10
2022-11-13T03:41:30.489Z,3.00
2022-11-13T03:45:32.440Z,3.00
2022-11-13T03:49:37.057Z,2.90
2022-11-13T03:53:38.974Z,2.90
2022-11-13T03:57:40.879Z,2.80
2022-11-13T04:01:42.870Z,2.70
2022-11-13T04:05:48.251Z,2.70
2022-11-13T04:09:50.216Z,2.80
2022-11-13T04:13:52.131Z,2.70
2022-11-13T04:17:54.096Z,2.60
2022-11-13T04:21:58.653Z,2.60
2022-11-13T04:26:01.192Z,2.60
2022-11-13T04:30:04.555Z,2.60
2022-11-13T04:34:06.489Z,2.40
2022-11-13T04:38:11.158Z,2.40
2022-11-13T04:42:13.123Z,2.40
2022-11-13T04:46:15.064Z,2.40
2022-11-13T04:50:17.727Z,2.30
2022-11-13T04:54:28.386Z,2.40
2022-11-13T04:58:30.847Z,2.30
2022-11-13T05:02:33.135Z,2.30
2022-11-13T05:06:35.142Z,2.30
2022-11-13T05:10:39.703Z,2.30
2022-11-13T05:14:41.647Z,2.20
2022-11-13T05:18:43.573Z,2.20
2022-11-13T05:22:45.510Z,2.30
2022-11-13T05:26:50.345Z,2.40
2022-11-13T05:30:52.269Z,2.40
2022-11-13T05:34:54.202Z,2.30
2022-11-13T05:38:56.258Z,2.20
2022-11-13T05:43:00.873Z,2.20
2022-11-13T05:47:02.848Z,2.20
2022-11-13T05:51:07.210Z,2.30
2022-11-13T05:55:09.533Z,2.40
2022-11-13T05:59:14.060Z,2.40
2022-11-13T06:03:16.022Z,2.30
2022-11-13T06:07:18.036Z,2.20
2022-11-13T06:11:23.326Z,2.20
2022-11-13T06:15:27.865Z,2.20
2022-11-13T06:19:29.981Z,2.30
2022-11-13T06:23:33.679Z,2.30
2022-11-13T06:27:35.643Z,2.20
2022-11-13T06:31:40.242Z,2.30
2022-11-13T06:35:42.160Z,2.30
2022-11-13T06:39:44.085Z,2.30
2022-11-13T06:43:46.832Z,2.40
2022-11-13T06:47:51.460Z,2.40
2022-11-13T06:51:53.417Z,2.40
2022-11-13T06:55:55.371Z,2.50
2022-11-13T06:59:57.297Z,2.50
2022-11-13T07:04:01.913Z,2.40
2022-11-13T07:08:03.871Z,2.30
2022-11-13T07:12:06.449Z,2.30
2022-11-13T07:16:16.799Z,2.30
2022-11-13T07:20:21.850Z,2.40
2022-11-13T07:24:24.029Z,2.40
2022-11-13T07:28:26.565Z,2.40
2022-11-13T07:32:28.774Z,2.40
2022-11-13T07:36:33.368Z,2.40
2022-11-13T07:40:35.308Z,2.60
2022-11-13T07:44:54.007Z,2.70
2022-11-13T07:48:57.049Z,2.80
2022-11-13T07:53:04.012Z,2.80
2022-11-13T07:57:05.988Z,2.80
2022-11-13T08:01:08.012Z,3.00
2022-11-13T08:05:10.052Z,3.00
2022-11-13T08:09:14.592Z,3.00
2022-11-13T08:13:16.578Z,3.20
2022-11-13T08:17:18.503Z,3.30
2022-11-13T08:21:20.692Z,3.40
2022-11-13T08:25:25.431Z,3.50
2022-11-13T08:29:27.393Z,3.60
2022-11-13T08:33:29.948Z,3.60
2022-11-13T08:37:32.859Z,3.80
2022-11-13T08:41:37.401Z,3.80
2022-11-13T08:45:39.342Z,3.90
2022-11-13T08:49:41.370Z,4.00
2022-11-13T08:53:43.315Z,4.10
2022-11-13T08:57:47.836Z,4.00
2022-11-13T09:01:49.875Z,4.00
2022-11-13T09:05:51.820Z,4.00
2022-11-13T09:09:53.774Z,4.20
2022-11-13T09:13:58.301Z,4.40
2022-11-13T09:18:01.957Z,4.40
2022-11-13T09:22:03.969Z,4.60
2022-11-13T09:26:05.958Z,4.70
2022-11-13T09:30:11.922Z,4.80
2022-11-13T09:34:13.863Z,5.00
